Time;durP1;ratioP1;P1;durP2;ratioP2;P2;SDS_P1;SDS_P2;PMS_P1;PMS_P2;Temp;Humidity;BMP_temperature;BMP_pressure;BME280_temperature;BME280_humidity;BME280_pressure;Samples;Min_cycle;Max_cycle;Signal;HPM_P1;HPM_P2
2023/07/12 00:01:13;;;;;;;13.35;7.70;;;;;;;24.69;60.19;100116.19;5068368;28;20040;-19
2023/07/12 00:03:38;;;;;;;11.80;7.95;;;;;;;24.79;59.55;100113.22;5084297;28;20024;-18
2023/07/12 00:06:22;;;;;;;14.48;7.75;;;;;;;25.02;58.04;100108.50;5084125;28;20024;-18
2023/07/12 00:08:47;;;;;;;11.75;7.53;;;;;;;24.91;59.13;100115.34;5084268;28;20050;-18
2023/07/12 00:11:21;;;;;;;10.68;6.72;;;;;;;24.79;58.71;100097.66;5084410;28;20017;-19
2023/07/12 00:13:48;;;;;;;12.45;7.30;;;;;;;24.95;58.82;100113.63;5084110;28;20016;-19
2023/07/12 00:16:27;;;;;;;11.10;7.23;;;;;;;24.82;58.96;100105.19;5086558;28;20024;-18
2023/07/12 00:18:54;;;;;;;9.18;6.93;;;;;;;25.03;58.89;100112.84;5088138;28;20161;-19
2023/07/12 00:21:22;;;;;;;9.52;7.15;;;;;;;24.75;59.23;100102.13;5087862;28;20016;-18
2023/07/12 00:23:53;;;;;;;9.60;7.50;;;;;;;24.70;60.26;100115.88;5087921;28;20519;-19
2023/07/12 00:26:41;;;;;;;11.70;7.75;;;;;;;24.49;60.32;100103.84;5087815;28;20063;-20
2023/07/12 00:29:08;;;;;;;11.25;7.70;;;;;;;23.92;62.78;100112.56;5087689;28;20674;-18
2023/07/12 00:31:37;;;;;;;10.52;7.95;;;;;;;23.42;65.72;100110.63;5087867;28;20024;-18
2023/07/12 00:34:04;;;;;;;10.27;7.95;;;;;;;23.54;65.52;100113.63;5087930;28;20035;-18
2023/07/12 00:36:31;;;;;;;10.82;8.60;;;;;;;23.20;66.80;100097.72;5087693;28;20507;-19
2023/07/12 00:38:58;;;;;;;10.90;8.90;;;;;;;23.00;68.70;100115.19;5087668;28;20469;-19
2023/07/12 00:41:42;;;;;;;12.03;8.67;;;;;;;22.86;69.10;100094.25;5087680;28;20044;-18
2023/07/12 00:44:14;;;;;;;11.98;8.57;;;;;;;23.29;67.94;100105.97;5087803;28;20040;-19
2023/07/12 00:46:41;;;;;;;10.73;8.52;;;;;;;23.48;67.21;100106.69;5087447;28;20035;-19
2023/07/12 00:49:10;;;;;;;13.27;8.43;;;;;;;23.63;66.90;100092.72;5087487;28;20031;-19
2023/07/12 00:52:03;;;;;;;10.52;8.05;;;;;;;23.60;66.48;100098.78;5087302;28;20437;-18
2023/07/12 00:54:58;;;;;;;11.05;8.93;;;;;;;23.75;65.81;100103.09;5087564;28;20089;-19
2023/07/12 00:57:26;;;;;;;12.55;8.88;;;;;;;23.71;65.59;100101.28;5087113;28;20031;-18
2023/07/12 00:59:55;;;;;;;11.75;8.57;;;;;;;23.71;66.07;100090.41;5087447;28;20036;-18
2023/07/12 01:02:23;;;;;;;12.15;9.32;;;;;;;23.94;65.03;100107.63;5087230;28;20909;-20
2023/07/12 01:04:51;;;;;;;11.20;9.15;;;;;;;24.06;64.26;100100.50;5086861;28;20515;-19
2023/07/12 01:07:19;;;;;;;12.23;9.20;;;;;;;24.14;63.72;100084.53;5087401;28;20020;-18
2023/07/12 01:09:47;;;;;;;12.88;9.52;;;;;;;23.96;64.92;100092.56;5086903;28;20106;-18
2023/07/12 01:12:13;;;;;;;17.45;9.75;;;;;;;23.98;65.14;100095.78;5087100;28;20024;-19
2023/07/12 01:14:41;;;;;;;11.07;8.98;;;;;;;24.01;64.41;100099.84;5086582;28;20448;-18
2023/07/12 01:17:07;;;;;;;11.73;9.10;;;;;;;24.05;64.18;100085.28;5086933;28;20162;-19
2023/07/12 01:19:36;;;;;;;15.98;9.00;;;;;;;24.00;63.81;100092.75;5087239;28;20485;-18
2023/07/12 01:22:02;;;;;;;11.45;8.15;;;;;;;23.87;64.56;100086.25;5086585;28;20024;-19
2023/07/12 01:24:31;;;;;;;11.80;8.50;;;;;;;23.68;65.24;100080.94;5087066;28;20020;-19
2023/07/12 01:27:00;;;;;;;10.70;8.50;;;;;;;23.41;65.64;100065.44;5085953;28;20024;-19
2023/07/12 01:29:27;;;;;;;10.40;8.10;;;;;;;23.34;65.93;100075.94;5086048;28;20458;-18
2023/07/12 01:31:53;;;;;;;15.50;8.70;;;;;;;23.20;67.09;100081.41;5086652;28;20063;-18
2023/07/12 01:34:19;;;;;;;11.73;8.85;;;;;;;22.85;68.68;100081.75;5086467;28;20085;-18
2023/07/12 01:36:45;;;;;;;12.18;9.10;;;;;;;23.16;67.45;100086.63;5086397;28;20016;-19
2023/07/12 01:39:13;;;;;;;12.13;8.38;;;;;;;22.88;69.54;100080.34;5086798;28;20462;-19
2023/07/12 01:41:39;;;;;;;12.35;9.10;;;;;;;23.13;67.55;100081.81;5085937;28;20032;-19
2023/07/12 01:44:05;;;;;;;12.15;9.10;;;;;;;22.63;70.46;100090.56;5086716;28;20028;-19
2023/07/12 01:46:33;;;;;;;13.10;9.25;;;;;;;22.50;71.19;100085.94;5086232;28;20027;-18
2023/07/12 01:48:59;;;;;;;14.30;8.50;;;;;;;23.01;69.15;100078.75;5086890;28;20024;-19
2023/07/12 01:51:26;;;;;;;18.92;9.45;;;;;;;23.06;68.65;100074.03;5086292;28;20115;-19
2023/07/12 01:53:54;;;;;;;12.35;9.13;;;;;;;23.21;67.71;100086.53;5086111;28;20028;-19
2023/07/12 01:56:21;;;;;;;11.50;9.23;;;;;;;23.32;67.44;100083.63;5086595;28;20485;-18
2023/07/12 01:58:46;;;;;;;13.95;9.27;;;;;;;23.36;67.80;100096.31;5086135;28;20032;-18
2023/07/12 02:01:12;;;;;;;11.18;8.80;;;;;;;23.14;68.01;100094.28;5086002;28;20028;-19
2023/07/12 02:03:37;;;;;;;12.15;9.88;;;;;;;22.94;69.24;100113.69;5086171;28;20039;-19
2023/07/12 02:06:03;;;;;;;13.13;9.50;;;;;;;23.03;69.48;100107.28;5085870;28;20032;-20
2023/07/12 02:08:28;;;;;;;13.52;9.13;;;;;;;23.09;68.85;100102.56;5086048;28;20034;-19
2023/07/12 02:10:53;;;;;;;12.57;9.65;;;;;;;23.00;69.03;100107.03;5086085;28;20024;-19
2023/07/12 02:13:21;;;;;;;12.95;9.77;;;;;;;22.76;70.06;100101.78;5085365;28;20025;-19
2023/07/12 02:15:47;;;;;;;13.32;9.70;;;;;;;22.62;70.88;100105.28;5085832;28;20050;-18
2023/07/12 02:18:12;;;;;;;11.43;8.48;;;;;;;22.54;71.09;100097.00;5085612;28;20412;-18
2023/07/12 02:20:39;;;;;;;11.63;9.18;;;;;;;21.97;74.21;100106.00;5085547;28;20024;-19
2023/07/12 02:23:05;;;;;;;11.82;9.20;;;;;;;21.90;73.73;100100.13;5085460;28;20016;-18
2023/07/12 02:25:30;;;;;;;13.30;9.23;;;;;;;21.87;74.30;100106.94;5085628;28;20024;-21
2023/07/12 02:27:56;;;;;;;15.13;10.75;;;;;;;22.05;73.34;100115.41;5085534;28;20055;-20
2023/07/12 02:30:24;;;;;;;11.25;9.77;;;;;;;22.15;72.83;100114.41;5085277;28;20024;-18
2023/07/12 02:32:51;;;;;;;14.65;9.93;;;;;;;22.23;72.91;100114.63;5085473;28;20067;-18
2023/07/12 02:35:17;;;;;;;14.18;9.70;;;;;;;22.39;72.09;100126.06;5085466;28;20089;-18
2023/07/12 02:37:43;;;;;;;11.90;10.00;;;;;;;22.40;71.81;100118.69;5084946;28;20047;-19
2023/07/12 02:40:09;;;;;;;11.88;9.80;;;;;;;22.43;72.06;100118.09;5085575;28;20416;-19
2023/07/12 02:42:35;;;;;;;17.98;10.43;;;;;;;22.43;71.99;100118.91;5084797;28;20504;-18
2023/07/12 02:45:04;;;;;;;16.15;10.18;;;;;;;22.53;71.53;100122.56;5085060;28;20142;-23
2023/07/12 02:47:29;;;;;;;14.27;10.10;;;;;;;22.55;70.87;100125.78;5085356;28;20502;-19
2023/07/12 02:49:55;;;;;;;16.42;9.90;;;;;;;22.66;70.68;100138.13;5085013;28;20532;-18
2023/07/12 02:52:20;;;;;;;16.73;9.63;;;;;;;22.80;69.39;100138.13;5085008;28;20830;-19
2023/07/12 02:54:45;;;;;;;12.13;10.05;;;;;;;22.85;69.33;100138.06;5084593;28;20688;-19
2023/07/12 02:57:14;;;;;;;15.25;9.95;;;;;;;22.82;69.96;100135.91;5085226;28;20497;-18
2023/07/12 02:59:40;;;;;;;13.07;9.73;;;;;;;22.73;69.56;100141.25;5085201;28;20024;-18
2023/07/12 03:02:10;;;;;;;12.60;10.02;;;;;;;22.78;69.04;100134.91;5084790;28;20792;-18
2023/07/12 03:04:36;;;;;;;12.45;9.90;;;;;;;22.81;69.38;100134.31;5084812;28;20036;-18
2023/07/12 03:07:02;;;;;;;11.70;9.00;;;;;;;22.97;68.84;100143.00;5084714;28;20055;-19
2023/07/12 03:09:28;;;;;;;12.77;9.13;;;;;;;23.10;67.42;100142.25;5085036;28;20111;-18
2023/07/12 03:11:53;;;;;;;12.93;9.23;;;;;;;22.99;67.76;100143.53;5084757;28;20433;-19
2023/07/12 03:14:23;;;;;;;11.35;8.35;;;;;;;22.92;67.66;100145.81;5084340;28;20071;-18
2023/07/12 03:16:49;;;;;;;15.88;10.07;;;;;;;22.99;67.87;100140.81;5085108;28;21036;-18
2023/07/12 03:19:15;;;;;;;17.60;11.90;;;;;;;23.21;66.34;100142.84;5084096;28;20028;-18
2023/07/12 03:21:40;;;;;;;16.83;11.52;;;;;;;23.05;66.58;100137.72;5084282;28;20035;-18
2023/07/12 03:24:07;;;;;;;15.93;11.10;;;;;;;23.31;66.24;100147.28;5084680;28;20028;-19
2023/07/12 03:26:33;;;;;;;23.13;10.97;;;;;;;23.26;66.28;100154.44;5084100;28;20031;-18
2023/07/12 03:28:59;;;;;;;14.35;9.68;;;;;;;23.13;67.96;100157.97;5084484;28;20714;-18
2023/07/12 03:31:28;;;;;;;11.95;9.70;;;;;;;22.94;68.82;100166.16;5084323;28;20449;-19
2023/07/12 03:33:54;;;;;;;17.67;11.43;;;;;;;22.65;70.91;100163.66;5084688;28;20622;-18
2023/07/12 03:36:21;;;;;;;19.85;12.00;;;;;;;22.45;72.57;100171.06;5084507;28;20114;-19
2023/07/12 03:38:46;;;;;;;16.92;12.10;;;;;;;22.49;72.75;100170.44;5084632;28;20020;-18
2023/07/12 03:41:15;;;;;;;22.30;11.90;;;;;;;22.61;72.85;100168.09;5084419;28;20077;-18
2023/07/12 03:43:43;;;;;;;19.77;11.75;;;;;;;22.75;71.89;100166.22;5084272;28;20703;-18
2023/07/12 03:46:08;;;;;;;17.45;11.48;;;;;;;22.75;72.32;100168.94;5084253;28;20028;-19
2023/07/12 03:48:34;;;;;;;17.98;11.10;;;;;;;22.87;71.69;100171.19;5084017;28;20020;-18
2023/07/12 03:50:59;;;;;;;14.73;10.77;;;;;;;23.09;71.27;100170.56;5083703;28;20020;-19
2023/07/12 03:53:27;;;;;;;20.60;10.95;;;;;;;23.25;71.05;100173.78;5084139;28;20020;-19
2023/07/12 03:55:53;;;;;;;18.80;11.57;;;;;;;23.42;70.24;100189.53;5084119;28;20477;-19
2023/07/12 03:58:24;;;;;;;18.63;12.55;;;;;;;23.45;69.48;100191.63;5084309;28;20032;-18
2023/07/12 04:00:50;;;;;;;14.35;11.25;;;;;;;23.41;69.58;100196.06;5065614;28;20028;-22
2023/07/12 04:03:17;;;;;;;15.23;10.85;;;;;;;23.61;68.93;100194.88;5083955;28;20077;-19
2023/07/12 04:05:43;;;;;;;17.63;12.18;;;;;;;23.49;69.37;100187.22;5084065;28;20123;-18
2023/07/12 04:08:11;;;;;;;14.55;10.57;;;;;;;23.12;70.63;100190.91;5083990;28;20024;-18
2023/07/12 04:10:38;;;;;;;14.88;10.52;;;;;;;23.31;71.02;100197.06;5084012;28;20051;-18
2023/07/12 04:13:03;;;;;;;15.07;11.48;;;;;;;22.74;74.87;100197.25;5084220;28;20085;-18
2023/07/12 04:15:29;;;;;;;11.48;10.27;;;;;;;22.68;76.59;100201.16;5084126;28;20058;-18
2023/07/12 04:17:54;;;;;;;15.75;11.20;;;;;;;22.49;78.40;100192.19;5083688;28;20028;-19
2023/07/12 04:20:20;;;;;;;11.95;10.20;;;;;;;22.74;77.56;100201.84;5083982;28;20038;-19
2023/07/12 04:22:52;;;;;;;13.40;10.38;;;;;;;22.72;78.01;100191.28;5084143;28;20474;-18
2023/07/12 04:25:18;;;;;;;13.57;11.07;;;;;;;23.11;75.03;100202.88;5084106;28;20050;-19
2023/07/12 04:27:45;;;;;;;11.77;9.82;;;;;;;23.53;72.03;100203.75;5083354;28;20026;-19
2023/07/12 04:30:18;;;;;;;12.30;10.05;;;;;;;23.69;71.08;100182.47;5083869;28;20032;-19
2023/07/12 04:32:47;;;;;;;14.95;10.13;;;;;;;23.67;70.88;100204.56;5083797;28;20522;-18
2023/07/12 04:35:13;;;;;;;13.20;9.15;;;;;;;23.59;70.53;100203.34;5083589;28;20177;-19
2023/07/12 04:37:44;;;;;;;12.90;9.93;;;;;;;23.82;69.19;100200.72;5083879;28;20031;-18
2023/07/12 04:40:10;;;;;;;10.70;9.15;;;;;;;24.10;68.63;100206.16;5083673;28;20020;-19
2023/07/12 04:42:36;;;;;;;12.38;9.82;;;;;;;24.09;68.53;100204.53;5083614;28;20067;-19
2023/07/12 04:45:03;;;;;;;13.68;10.05;;;;;;;24.18;68.54;100208.16;5083945;28;20109;-21
2023/07/12 04:47:28;;;;;;;14.10;9.83;;;;;;;24.21;67.96;100212.97;5083797;28;20032;-19
2023/07/12 04:49:54;;;;;;;15.95;9.82;;;;;;;24.24;67.66;100220.56;5083705;28;20020;-20
2023/07/12 04:52:19;;;;;;;13.38;9.18;;;;;;;24.44;67.63;100209.19;5083674;28;20024;-19
2023/07/12 04:54:48;;;;;;;13.10;9.88;;;;;;;24.67;66.49;100204.56;5083710;28;20039;-18
2023/07/12 04:57:13;;;;;;;11.38;9.52;;;;;;;24.63;66.90;100224.59;5083497;28;20028;-19
2023/07/12 04:59:39;;;;;;;20.70;9.82;;;;;;;24.89;66.29;100222.06;5083843;28;20784;-18
2023/07/12 05:02:04;;;;;;;11.95;9.40;;;;;;;24.94;65.88;100204.75;5085722;28;20486;-18
2023/07/12 05:04:31;;;;;;;12.13;9.57;;;;;;;25.12;65.69;100214.63;5087118;28;20054;-18
2023/07/12 05:06:56;;;;;;;13.95;9.48;;;;;;;25.33;64.43;100216.84;5087391;28;20032;-18
2023/07/12 05:09:22;;;;;;;14.23;9.95;;;;;;;25.39;63.56;100210.94;5087184;28;20020;-18
2023/07/12 05:11:48;;;;;;;11.88;8.88;;;;;;;25.46;59.56;100218.69;5087168;28;20024;-18
2023/07/12 05:14:13;;;;;;;11.75;8.52;;;;;;;25.39;62.27;100202.75;5087039;28;20086;-18
2023/07/12 05:16:39;;;;;;;11.07;9.43;;;;;;;25.49;60.88;100223.50;5086674;28;20024;-19
2023/07/12 05:19:04;;;;;;;10.98;9.05;;;;;;;25.55;60.54;100216.78;5086593;28;20120;-20
2023/07/12 05:21:30;;;;;;;13.75;8.80;;;;;;;25.77;56.04;100229.56;5086908;28;20028;-19
2023/07/12 05:23:55;;;;;;;11.80;8.60;;;;;;;25.75;55.75;100220.88;5086697;28;20100;-18
2023/07/12 05:26:21;;;;;;;11.80;8.40;;;;;;;26.02;54.87;100225.28;5086537;28;20093;-19
2023/07/12 05:28:46;;;;;;;11.00;8.40;;;;;;;26.00;54.42;100226.75;5086378;28;20093;-18
2023/07/12 05:31:13;;;;;;;9.85;8.25;;;;;;;26.15;54.65;100233.69;5086489;28;20092;-18
2023/07/12 05:33:44;;;;;;;14.05;9.18;;;;;;;26.36;53.33;100218.28;5086698;28;20031;-20
2023/07/12 05:36:11;;;;;;;13.30;9.60;;;;;;;26.28;54.26;100227.28;5086757;28;20024;-18
2023/07/12 05:38:38;;;;;;;10.10;8.95;;;;;;;26.38;54.83;100228.91;5086460;28;20146;-18
2023/07/12 05:41:04;;;;;;;12.82;8.90;;;;;;;26.43;57.38;100213.09;5085927;28;20589;-20
2023/07/12 05:43:29;;;;;;;12.73;8.48;;;;;;;26.59;55.00;100229.09;5086241;28;20020;-18
2023/07/12 05:45:58;;;;;;;12.63;8.43;;;;;;;26.66;53.46;100221.19;5086199;28;20409;-19
2023/07/12 05:48:25;;;;;;;12.90;9.25;;;;;;;26.72;52.85;100224.56;5086397;28;20032;-19
2023/07/12 05:50:56;;;;;;;11.13;8.38;;;;;;;26.62;54.44;100226.50;5086063;28;20027;-19
2023/07/12 05:53:22;;;;;;;13.68;9.00;;;;;;;26.78;52.00;100229.53;5086126;28;20109;-19
2023/07/12 05:55:47;;;;;;;12.82;9.13;;;;;;;26.92;54.08;100225.81;5086018;28;20428;-20
2023/07/12 05:58:13;;;;;;;13.90;9.20;;;;;;;27.20;52.47;100232.50;5086083;28;20059;-18
2023/07/12 06:00:39;;;;;;;12.77;9.23;;;;;;;27.16;51.22;100234.28;5086011;28;20115;-19
2023/07/12 06:03:05;;;;;;;11.50;8.68;;;;;;;27.34;51.54;100226.03;5086266;28;20028;-18
2023/07/12 06:05:31;;;;;;;12.32;8.27;;;;;;;27.35;51.87;100244.09;5086109;28;20089;-22
2023/07/12 06:07:57;;;;;;;14.52;8.73;;;;;;;27.49;50.85;100238.41;5084749;28;20089;-18
2023/07/12 06:10:27;;;;;;;11.65;8.70;;;;;;;27.60;49.55;100243.19;5065934;28;20032;-19
2023/07/12 06:12:56;;;;;;;11.77;8.48;;;;;;;27.68;51.65;100240.72;5065141;28;20089;-19
2023/07/12 06:15:21;;;;;;;14.13;9.05;;;;;;;27.84;50.72;100237.09;5065772;28;20611;-18
2023/07/12 06:17:46;;;;;;;12.27;8.77;;;;;;;28.00;49.68;100245.56;5065822;28;20029;-19
2023/07/12 06:20:12;;;;;;;15.57;9.30;;;;;;;28.02;49.42;100242.50;5064515;28;20033;-18
2023/07/12 06:22:37;;;;;;;13.40;8.90;;;;;;;28.05;49.25;100242.66;5065252;28;20032;-18
2023/07/12 06:25:05;;;;;;;12.20;9.32;;;;;;;28.21;50.10;100245.59;5065278;28;20036;-19
2023/07/12 06:27:31;;;;;;;11.60;8.85;;;;;;;28.33;49.67;100244.06;5065634;28;20032;-21
2023/07/12 06:29:56;;;;;;;12.70;9.30;;;;;;;28.49;48.19;100239.59;5065338;28;20052;-18
2023/07/12 06:32:22;;;;;;;14.63;9.30;;;;;;;28.47;48.71;100241.88;5065396;28;20560;-19
2023/07/12 06:34:47;;;;;;;14.68;8.85;;;;;;;28.55;48.77;100232.78;5065148;28;20086;-18
2023/07/12 06:37:15;;;;;;;12.95;8.55;;;;;;;28.52;49.05;100232.66;5065355;28;20090;-20
2023/07/12 06:39:40;;;;;;;11.82;8.75;;;;;;;28.69;48.63;100240.75;5064966;28;20028;-18
2023/07/12 06:42:09;;;;;;;13.13;8.63;;;;;;;28.88;47.35;100229.25;5065434;28;20044;-19
2023/07/12 06:44:35;;;;;;;12.88;9.65;;;;;;;28.89;49.09;100235.53;5064911;28;20112;-19
2023/07/12 06:47:01;;;;;;;9.45;7.97;;;;;;;29.09;46.74;100237.41;5065577;28;20478;-18
2023/07/12 06:49:27;;;;;;;9.57;7.68;;;;;;;29.09;47.65;100240.16;5065324;28;20024;-20
2023/07/12 06:51:52;;;;;;;11.60;8.45;;;;;;;29.33;46.47;100238.66;5064507;28;20027;-19
2023/07/12 06:54:17;;;;;;;10.43;9.00;;;;;;;29.52;44.89;100236.13;5064936;28;20628;-19
2023/07/12 06:56:44;;;;;;;11.15;8.73;;;;;;;29.71;43.51;100237.53;5084375;28;20016;-19
2023/07/12 06:59:10;;;;;;;12.93;8.63;;;;;;;29.48;45.18;100235.22;5081957;28;20032;-18
2023/07/12 07:01:36;;;;;;;12.40;8.18;;;;;;;29.60;44.28;100243.47;5064692;28;20024;-18
2023/07/12 07:04:03;;;;;;;11.52;8.93;;;;;;;29.69;44.31;100250.78;5075888;28;20046;-20
2023/07/12 07:06:29;;;;;;;11.00;8.70;;;;;;;29.73;45.21;100235.25;5077711;28;20042;-20
2023/07/12 07:08:54;;;;;;;10.95;7.60;;;;;;;29.85;45.73;100238.00;5078392;28;20037;-18
2023/07/12 07:11:20;;;;;;;12.15;8.65;;;;;;;29.99;45.78;100241.19;5083802;28;20069;-18
2023/07/12 07:13:47;;;;;;;14.23;8.88;;;;;;;30.07;44.86;100244.97;5084871;28;20429;-19
2023/07/12 07:16:12;;;;;;;11.88;8.93;;;;;;;30.04;44.34;100246.47;5085153;28;20020;-18
2023/07/12 07:18:38;;;;;;;19.45;8.93;;;;;;;30.36;44.88;100229.34;5083657;28;20035;-20
2023/07/12 07:21:04;;;;;;;12.82;8.10;;;;;;;30.50;41.75;100243.50;5083459;28;20024;-19
2023/07/12 07:23:32;;;;;;;13.20;8.40;;;;;;;30.54;41.75;100246.38;5085120;28;20036;-18
2023/07/12 07:26:07;;;;;;;11.63;8.00;;;;;;;30.57;41.57;100242.94;5084196;28;20028;-19
2023/07/12 07:28:35;;;;;;;10.85;7.90;;;;;;;30.88;41.47;100253.25;5080898;28;20052;-20
2023/07/12 07:31:04;;;;;;;14.13;8.65;;;;;;;31.03;40.65;100251.69;5084492;28;20197;-18
2023/07/12 07:33:29;;;;;;;11.23;8.45;;;;;;;31.07;39.07;100246.28;5083060;28;20024;-19
2023/07/12 07:35:58;;;;;;;10.85;7.80;;;;;;;31.00;40.20;100244.13;5081703;28;20712;-22
2023/07/12 07:38:27;;;;;;;11.43;8.07;;;;;;;31.26;42.08;100237.31;5082992;28;20571;-20
2023/07/12 07:40:54;;;;;;;11.05;8.20;;;;;;;31.55;41.12;100238.88;5084505;28;20081;-19
2023/07/12 07:43:21;;;;;;;12.73;7.97;;;;;;;31.51;38.30;100249.00;5084450;28;20047;-19
2023/07/12 07:45:49;;;;;;;14.57;7.95;;;;;;;31.55;38.26;100236.91;5084293;28;20050;-19
2023/07/12 07:48:15;;;;;;;13.52;7.93;;;;;;;31.70;37.82;100246.31;5084614;28;20039;-20
2023/07/12 07:50:42;;;;;;;12.23;7.75;;;;;;;31.68;37.53;100253.34;5083447;28;20024;-18
2023/07/12 07:53:09;;;;;;;12.60;8.02;;;;;;;31.58;38.27;100244.44;5083782;28;20031;-18
2023/07/12 07:55:41;;;;;;;12.88;8.20;;;;;;;31.73;39.48;100255.81;5082152;28;20043;-21
2023/07/12 07:58:06;;;;;;;11.75;7.93;;;;;;;31.86;37.69;100254.56;5084056;28;20024;-19
2023/07/12 08:00:32;;;;;;;12.63;7.93;;;;;;;32.01;37.63;100247.44;5083901;28;20032;-19
2023/07/12 08:02:57;;;;;;;11.85;7.63;;;;;;;32.13;37.00;100255.59;5084615;28;20024;-18
2023/07/12 08:05:23;;;;;;;11.77;7.22;;;;;;;32.18;36.72;100247.03;5083335;28;20036;-18
2023/07/12 08:07:50;;;;;;;15.98;8.20;;;;;;;32.29;36.72;100240.94;5084546;28;20393;-19
2023/07/12 08:10:18;;;;;;;12.40;8.00;;;;;;;32.30;37.16;100237.00;5080859;28;20618;-19
2023/07/12 08:12:44;;;;;;;11.82;7.78;;;;;;;32.17;36.92;100244.63;5083500;28;20036;-19
2023/07/12 08:15:12;;;;;;;12.60;8.05;;;;;;;32.19;37.99;100245.06;5084144;28;20032;-18
2023/07/12 08:17:38;;;;;;;10.98;7.03;;;;;;;32.46;36.66;100248.00;5083980;28;20035;-18
2023/07/12 08:20:04;;;;;;;13.57;7.63;;;;;;;32.81;36.98;100251.47;5084142;28;20127;-25
2023/07/12 08:22:31;;;;;;;11.60;7.18;;;;;;;32.79;36.00;100233.69;5083874;28;20107;-19
2023/07/12 08:25:02;;;;;;;10.37;7.40;;;;;;;32.93;35.13;100249.72;5083091;28;20032;-19
2023/07/12 08:27:30;;;;;;;11.40;7.13;;;;;;;32.94;35.75;100240.28;5083956;28;20274;-19
2023/07/12 08:29:58;;;;;;;11.70;7.32;;;;;;;32.83;35.77;100246.41;5083888;28;20449;-19
2023/07/12 08:32:32;;;;;;;12.05;8.57;;;;;;;33.09;36.29;100235.84;5084358;28;20043;-22
2023/07/12 08:35:00;;;;;;;10.25;6.78;;;;;;;33.46;34.67;100233.31;5084226;28;20035;-19
2023/07/12 08:37:27;;;;;;;12.07;7.47;;;;;;;33.55;35.34;100235.81;5087097;28;20020;-20
2023/07/12 08:39:53;;;;;;;12.95;7.40;;;;;;;33.45;34.07;100234.50;5087779;28;20020;-19
2023/07/12 08:42:34;;;;;;;8.65;6.85;;;;;;;33.48;34.51;100230.19;5085639;28;20116;-18
2023/07/12 08:45:01;;;;;;;10.00;6.50;;;;;;;33.70;32.59;100209.22;5088452;28;20038;-18
2023/07/12 08:47:31;;;;;;;11.07;7.10;;;;;;;33.69;32.99;100221.44;5087534;28;20043;-18
2023/07/12 08:50:00;;;;;;;13.93;6.80;;;;;;;34.05;32.78;100219.97;5087595;28;20128;-19
2023/07/12 08:52:33;;;;;;;10.82;7.13;;;;;;;34.11;32.58;100226.00;5087390;28;20034;-20
2023/07/12 08:55:01;;;;;;;12.13;6.88;;;;;;;34.25;31.72;100217.13;5087913;28;20028;-18
2023/07/12 08:57:28;;;;;;;9.98;6.20;;;;;;;34.40;33.37;100213.34;5087782;28;20050;-19
2023/07/12 09:00:10;;;;;;;14.23;6.88;;;;;;;34.66;31.00;100229.09;5087645;28;20499;-19
2023/07/12 09:02:39;;;;;;;10.00;6.32;;;;;;;34.49;32.33;100224.94;5087292;28;20090;-19
2023/07/12 09:05:16;;;;;;;10.55;6.85;;;;;;;34.52;32.38;100213.06;5086963;28;20078;-18
2023/07/12 09:07:59;;;;;;;9.70;6.35;;;;;;;34.65;31.23;100216.41;5086396;28;20024;-19
2023/07/12 09:10:34;;;;;;;11.90;6.63;;;;;;;34.80;32.31;100229.25;5087254;28;20058;-18
2023/07/12 09:13:01;;;;;;;10.93;6.78;;;;;;;35.12;31.31;100234.28;5078899;28;20449;-18
2023/07/12 09:15:52;;;;;;;10.40;7.05;;;;;;;35.16;30.07;100243.47;5066591;28;20025;-17
2023/07/12 09:18:30;;;;;;;12.65;6.78;;;;;;;35.25;28.89;100239.56;5061931;28;20029;-17
2023/07/12 09:20:58;;;;;;;11.23;6.68;;;;;;;35.04;29.70;100229.84;5065804;28;20028;-17
2023/07/12 09:23:24;;;;;;;8.85;6.53;;;;;;;35.03;30.24;100239.38;5066661;28;20037;-16
2023/07/12 09:25:58;;;;;;;10.75;6.70;;;;;;;35.40;30.23;100231.00;5066466;28;20036;-17
2023/07/12 09:28:23;;;;;;;12.05;6.60;;;;;;;35.58;29.56;100241.44;5066266;28;20498;-16
2023/07/12 09:30:51;;;;;;;10.82;6.25;;;;;;;35.92;28.73;100232.97;5066268;28;20494;-17
2023/07/12 09:33:24;;;;;;;14.02;6.53;;;;;;;35.91;29.00;100236.94;5066506;28;20078;-16
2023/07/12 09:35:49;;;;;;;9.15;6.43;;;;;;;36.14;30.10;100245.78;5066486;28;20505;-16
2023/07/12 09:38:18;;;;;;;10.05;6.40;;;;;;;36.15;29.13;100238.28;5066312;28;20081;-16
2023/07/12 09:40:47;;;;;;;9.32;5.90;;;;;;;36.27;29.18;100242.69;5066818;28;20056;-16
2023/07/12 09:43:23;;;;;;;9.65;6.50;;;;;;;35.95;28.11;100221.88;5066765;28;20024;-17
2023/07/12 09:46:24;;;;;;;8.38;5.57;;;;;;;36.03;28.04;100221.94;5066596;28;20116;-17
2023/07/12 09:48:59;;;;;;;10.48;6.55;;;;;;;36.23;28.69;100231.59;5065205;28;20033;-17
2023/07/12 09:51:33;;;;;;;9.43;6.75;;;;;;;36.15;28.58;100241.06;5066515;28;20101;-17
2023/07/12 09:54:23;;;;;;;9.43;6.38;;;;;;;36.40;28.01;100236.41;5066423;28;20036;-16
2023/07/12 09:57:00;;;;;;;8.35;5.95;;;;;;;36.09;27.79;100226.72;5065153;28;20036;-16
2023/07/12 09:59:49;;;;;;;9.60;7.00;;;;;;;36.34;28.81;100232.41;5065415;28;20493;-17
2023/07/12 10:03:00;;;;;;;7.55;5.53;;;;;;;36.69;27.54;100230.97;5066091;28;20021;-17
2023/07/12 10:05:26;;;;;;;7.68;5.47;;;;;;;36.46;26.33;100234.03;5065830;28;20115;-17
2023/07/12 10:07:58;;;;;;;9.18;5.97;;;;;;;36.33;28.71;100219.72;5066153;28;20528;-17
2023/07/12 10:10:35;;;;;;;10.38;5.90;;;;;;;36.67;27.00;100213.09;5066127;28;20025;-17
2023/07/12 10:13:32;;;;;;;7.90;5.57;;;;;;;37.18;27.82;100214.78;5067157;28;20039;-17
2023/07/12 10:15:58;;;;;;;;;;;;;;;37.19;25.81;100222.72;5086681;28;20463;-19
2023/07/12 10:18:29;;;;;;;8.30;5.47;;;;;;;36.63;27.11;100199.19;5085765;28;19912;-16
2023/07/12 10:20:56;;;;;;;9.48;5.90;;;;;;;36.74;28.48;100186.13;5085952;28;20024;-16
2023/07/12 10:23:27;;;;;;;9.77;6.40;;;;;;;37.00;27.93;100192.50;5085701;28;20078;-18
2023/07/12 10:26:04;;;;;;;8.65;5.40;;;;;;;36.73;27.01;100175.41;5085822;28;20039;-16
2023/07/12 10:28:56;;;;;;;10.63;6.43;;;;;;;37.14;27.67;100161.16;5085635;28;20059;-17
2023/07/12 10:31:40;;;;;;;8.95;6.00;;;;;;;37.27;27.80;100170.69;5085995;28;20043;-16
2023/07/12 10:34:38;;;;;;;9.68;5.32;;;;;;;37.31;26.70;100167.88;5085892;28;20028;-16
2023/07/12 10:37:27;;;;;;;9.07;5.80;;;;;;;37.34;27.60;100164.31;5042188;28;20180;-17
2023/07/12 10:39:53;;;;;;;9.13;6.30;;;;;;;37.45;26.09;100159.53;5085953;28;20024;-18
2023/07/12 10:42:27;;;;;;;11.15;5.70;;;;;;;37.27;25.79;100158.75;5085991;28;20070;-16
2023/07/12 10:44:55;;;;;;;9.50;6.03;;;;;;;37.12;25.30;100146.84;5085701;28;20035;-19
2023/07/12 10:47:27;;;;;;;24.00;7.38;;;;;;;37.19;26.86;100156.00;5085449;28;20028;-19
2023/07/12 10:49:58;;;;;;;11.98;5.75;;;;;;;37.54;26.08;100154.34;5070000;28;20024;-19
2023/07/12 10:52:54;;;;;;;11.27;6.30;;;;;;;37.56;25.11;100149.19;5084257;28;20031;-19
2023/07/12 10:55:49;;;;;;;9.05;6.47;;;;;;;37.80;25.52;100149.50;5084187;28;20021;-18
2023/07/12 10:58:20;;;;;;;10.23;6.50;;;;;;;37.83;26.02;100153.50;5085396;28;20024;-18
2023/07/12 11:00:59;;;;;;;11.32;7.18;;;;;;;38.43;24.37;100162.78;5082402;28;20032;-19
2023/07/12 11:04:04;;;;;;;10.13;7.18;;;;;;;38.34;24.00;100154.88;5082247;28;20024;-19
2023/07/12 11:06:33;;;;;;;10.05;6.90;;;;;;;38.71;22.80;100151.47;5085265;28;20081;-19
2023/07/12 11:08:58;;;;;;;11.40;6.90;;;;;;;38.71;24.77;100145.91;5084610;28;20024;-19
2023/07/12 11:12:01;;;;;;;11.23;6.80;;;;;;;38.81;23.49;100140.66;5085261;28;20028;-20
2023/07/12 11:14:50;;;;;;;11.77;7.18;;;;;;;38.74;22.86;100142.31;5038424;28;20040;-18
2023/07/12 11:17:21;;;;;;;11.07;6.40;;;;;;;38.92;23.24;100133.78;5084992;28;20136;-19
2023/07/12 11:20:06;;;;;;;10.57;7.30;;;;;;;38.37;24.21;100129.81;5084701;28;20051;-19
2023/07/12 11:22:51;;;;;;;10.80;6.68;;;;;;;38.69;24.36;100139.94;5084847;28;20020;-20
2023/07/12 11:25:30;;;;;;;11.80;7.00;;;;;;;38.78;23.24;100143.06;5084760;28;20089;-18
2023/07/12 11:28:29;;;;;;;9.70;6.78;;;;;;;38.61;23.10;100141.19;5081653;28;20063;-19